.
WxDataArchive / Data Records for 2010-09-24
2010-09-23 September 2010 2010-09-25

Data Records for Friday, 24 September 2010

Time	Temp	Chill	HIndex	Humid	Dewpt	 Wind 	HiWind	WindDir	Rain 	Barom 
-----	----	-----	------	-----	-----	------	------	-------	-----	----- 
00:00	80.3	80.3	81.1	50	59.9	0	2	248	0.00	29.920 
00:05	80.1	80.1	81.0	51	60.3	0	3	248	0.00	29.920 
00:10	79.9	79.9	80.8	51	60.1	1	4	248	0.00	29.920 
00:15	79.8	79.8	80.8	52	60.6	0	4	248	0.00	29.917 
00:20	79.6	79.6	80.6	52	60.4	0	2	248	0.00	29.917 
00:25	79.4	79.4	80.5	52	60.2	0	3	248	0.00	29.917 
00:30	79.2	79.2	80.4	53	60.6	0	2	248	0.00	29.916 
00:35	78.8	78.8	80.0	53	60.2	0	1	248	0.00	29.916 
00:40	78.6	78.6	79.9	54	60.5	0	3	248	0.00	29.916 
00:45	78.5	78.5	79.8	54	60.4	1	2	270	0.00	29.917 
00:50	78.5	78.5	79.8	54	60.4	0	2	270	0.00	29.917 
00:55	78.3	78.3	79.7	54	60.3	0	2	270	0.00	29.917 
01:00	78.1	78.1	79.5	55	60.6	0	3	248	0.00	29.917 
01:05	78.1	78.1	79.5	55	60.6	0	3	202	0.00	29.917 
01:10	77.7	77.7	79.3	56	60.7	0	2	292	0.00	29.917 
01:15	77.6	77.6	79.2	57	61.1	0	3	68	0.00	29.912 
01:20	77.4	77.4	79.1	57	61.0	0	2	68	0.00	29.912 
01:25	77.2	77.2	78.9	57	60.8	1	4	68	0.00	29.912 
01:30	77.2	77.2	78.9	57	60.8	1	4	248	0.00	29.911 
01:35	77.4	77.4	79.1	57	61.0	1	3	248	0.00	29.911 
01:40	77.4	77.4	79.0	56	60.5	1	3	248	0.00	29.911 
01:45	77.6	77.6	79.2	56	60.6	1	4	248	0.00	29.908 
01:50	77.6	77.6	79.2	56	60.6	1	3	90	0.00	29.908 
01:55	77.6	77.6	79.2	56	60.6	1	5	248	0.00	29.908 
02:00	77.4	77.4	79.0	56	60.5	1	4	248	0.00	29.907 
02:05	77.4	77.4	79.0	56	60.5	0	2	202	0.00	29.907 
02:10	77.4	77.4	79.0	56	60.5	1	4	225	0.00	29.907 
02:15	77.4	77.4	79.0	56	60.5	1	5	225	0.00	29.903 
02:20	77.2	77.2	78.9	56	60.3	1	3	248	0.00	29.903 
02:25	77.2	77.2	78.9	56	60.3	1	3	292	0.00	29.903 
02:30	77.2	77.2	78.9	57	60.8	0	1	292	0.00	29.902 
02:35	77.0	77.0	78.7	57	60.6	0	2	292	0.00	29.902 
02:40	77.0	77.0	78.7	57	60.6	1	4	270	0.00	29.902 
02:45	77.2	77.2	78.9	57	60.8	1	4	270	0.00	29.901 
02:50	77.2	77.2	78.9	57	60.8	1	4	315	0.00	29.901 
02:55	77.2	77.2	78.9	57	60.8	1	4	225	0.00	29.901 
03:00	77.2	77.2	78.9	57	60.8	1	4	270	0.00	29.899 
03:05	77.2	77.2	78.9	57	60.8	1	3	315	0.00	29.899 
03:10	77.0	77.0	78.8	58	61.1	0	2	0	0.00	29.899 
03:15	77.0	77.0	78.8	58	61.1	1	4	270	0.00	29.889 
03:20	77.0	77.0	78.8	58	61.1	1	4	248	0.00	29.889 
03:25	77.0	77.0	78.8	58	61.1	1	4	248	0.00	29.889 
03:30	77.2	77.2	78.9	58	61.3	2	7	248	0.00	29.886 
03:35	77.4	77.4	79.1	58	61.4	1	3	315	0.00	29.886 
03:40	77.2	77.2	78.9	58	61.3	1	4	225	0.00	29.886 
03:45	77.2	77.2	78.9	58	61.3	1	9	248	0.00	29.878 
03:50	77.2	77.2	78.9	58	61.3	0	1	270	0.00	29.878 
03:55	77.0	77.0	78.8	58	61.1	1	9	270	0.00	29.878 
04:00	77.0	77.0	78.8	58	61.1	1	6	248	0.00	29.872 
04:05	77.0	77.0	78.8	58	61.1	1	3	225	0.00	29.872 
04:10	77.0	77.0	78.8	58	61.1	1	4	270	0.00	29.872 
04:15	77.0	77.0	78.8	58	61.1	2	5	225	0.00	29.869 
04:20	77.2	77.2	78.9	58	61.3	1	6	248	0.00	29.869 
04:25	77.2	77.2	78.9	58	61.3	1	5	248	0.00	29.869 
04:30	77.0	77.0	78.8	59	61.6	1	6	270	0.00	29.868 
04:35	77.0	77.0	78.8	59	61.6	1	6	248	0.00	29.868 
04:40	76.8	76.8	78.6	59	61.4	1	4	248	0.00	29.868 
04:45	76.8	76.8	78.6	60	61.8	1	4	270	0.00	29.864 
04:50	76.7	76.7	78.5	60	61.7	1	5	248	0.00	29.864 
04:55	76.5	76.5	78.4	60	61.6	1	4	248	0.00	29.864 
05:00	76.5	76.5	78.4	60	61.6	1	5	248	0.00	29.865 
05:05	76.3	76.3	78.2	61	61.8	0	3	248	0.00	29.865 
05:10	76.1	76.1	78.1	61	61.7	1	6	270	0.00	29.865 
05:15	76.1	76.1	78.0	62	62.1	1	4	248	0.00	29.864 
05:20	76.0	76.0	78.0	62	62.0	1	4	270	0.00	29.864 
05:25	76.0	76.0	78.0	62	62.0	1	5	248	0.00	29.864 
05:30	75.8	75.8	77.8	62	61.8	1	3	270	0.00	29.862 
05:35	75.8	75.8	77.8	62	61.8	1	4	270	0.00	29.862 
05:40	75.8	75.8	77.8	62	61.8	1	3	248	0.00	29.862 
05:45	75.8	75.8	77.8	62	61.8	2	6	315	0.00	29.859 
05:50	75.8	75.8	77.8	62	61.8	1	6	270	0.00	29.859 
05:55	75.8	75.8	77.8	62	61.8	2	5	248	0.00	29.859 
06:00	75.6	75.6	77.7	62	61.6	1	3	248	0.00	29.860 
06:05	75.6	75.6	77.7	62	61.6	1	5	225	0.00	29.860 
06:10	75.6	75.6	77.7	62	61.6	1	6	270	0.00	29.860 
06:15	75.4	75.4	77.5	62	61.5	1	5	248	0.00	29.860 
06:20	75.4	75.4	77.5	62	61.5	1	5	270	0.00	29.860 
06:25	75.4	75.4	77.5	62	61.5	1	4	248	0.00	29.860 
06:30	75.4	75.4	77.5	62	61.5	1	6	270	0.00	29.858 
06:35	75.4	75.4	77.5	62	61.5	1	5	270	0.00	29.858 
06:40	75.4	75.4	77.5	62	61.5	2	5	270	0.00	29.858 
06:45	75.3	75.3	77.5	62	61.4	1	5	248	0.00	29.855 
06:50	75.3	75.3	77.5	62	61.4	2	10	248	0.00	29.855 
06:55	75.4	75.4	77.6	61	61.0	2	8	225	0.00	29.855 
07:00	75.4	75.4	77.6	61	61.0	2	9	248	0.00	29.855 
07:05	75.4	75.4	77.6	61	61.0	1	7	270	0.00	29.855 
07:10	75.4	75.4	77.6	60	60.5	1	5	270	0.00	29.855 
07:15	75.6	75.6	77.7	60	60.7	2	5	270	0.00	29.851 
07:20	75.6	75.6	77.7	60	60.7	1	6	225	0.00	29.851 
07:25	75.6	75.6	77.7	60	60.7	1	4	248	0.00	29.851 
07:30	75.6	75.6	77.7	60	60.7	2	6	248	0.00	29.854 
07:35	75.6	75.6	77.8	59	60.2	2	10	248	0.00	29.854 
07:40	75.8	75.8	77.9	59	60.4	1	6	248	0.00	29.854 
07:45	75.8	75.8	77.9	59	60.4	2	6	270	0.00	29.853 
07:50	75.8	75.8	77.9	59	60.4	1	5	270	0.00	29.853 
07:55	75.8	75.8	77.9	58	59.9	2	9	248	0.00	29.853 
08:00	76.0	76.0	78.0	58	60.1	2	6	270	0.00	29.854 
08:05	76.1	76.1	78.1	58	60.2	2	6	248	0.00	29.854 
08:10	76.3	76.3	78.3	57	59.9	2	7	270	0.00	29.854 
08:15	76.5	76.5	78.4	57	60.1	3	6	292	0.00	29.854 
08:20	76.8	76.8	78.6	56	59.9	3	9	270	0.00	29.854 
08:25	77.2	77.2	78.9	55	59.8	3	6	248	0.00	29.854 
08:30	77.2	77.2	78.9	55	59.8	2	6	270	0.00	29.852 
08:35	77.4	77.4	79.0	54	59.4	3	6	248	0.00	29.852 
08:40	77.7	77.7	79.2	54	59.7	3	11	270	0.00	29.852 
08:45	78.1	78.1	79.5	53	59.6	2	7	292	0.00	29.844 
08:50	78.3	78.3	79.6	52	59.2	3	10	248	0.00	29.844 
08:55	78.3	78.3	79.6	52	59.2	3	10	270	0.00	29.844 
09:00	78.6	78.6	79.7	51	58.9	3	7	270	0.00	29.836 
09:05	78.8	78.8	79.9	51	59.1	3	7	270	0.00	29.836 
09:10	78.8	78.8	79.9	51	59.1	3	13	292	0.00	29.836 
09:15	79.0	79.0	80.0	51	59.3	4	11	248	0.00	29.832 
09:20	79.4	79.4	80.3	50	59.1	4	10	270	0.00	29.832 
09:25	79.6	79.6	80.5	50	59.3	3	10	270	0.00	29.832 
09:30	79.9	79.9	80.6	49	59.0	4	12	248	0.00	29.821 
09:35	80.3	80.3	81.0	49	59.4	4	12	270	0.00	29.821 
09:40	80.5	80.5	80.9	47	58.4	3	12	270	0.00	29.821 
09:45	81.1	81.1	81.5	47	58.9	4	11	270	0.00	29.815 
09:50	81.4	81.4	81.6	46	58.6	4	14	248	0.00	29.815 
09:55	81.6	81.6	81.8	46	58.8	4	10	270	0.00	29.815 
10:00	82.0	82.0	82.2	46	59.1	5	14	270	0.00	29.818 
10:05	82.4	82.4	82.5	45	58.9	4	7	270	0.00	29.818 
10:10	82.6	82.6	82.7	45	59.1	4	9	248	0.00	29.818 
10:15	81.8	81.8	82.0	46	59.0	5	13	270	0.00	29.812 
10:20	81.4	81.4	81.8	47	59.2	3	10	270	0.00	29.812 
10:25	81.2	81.2	81.6	47	59.0	4	10	248	0.00	29.812 
10:30	81.4	81.4	81.8	47	59.2	5	13	248	0.00	29.813 
10:35	81.8	81.8	82.1	47	59.6	5	14	270	0.00	29.813 
10:40	82.0	82.0	82.2	46	59.1	6	12	270	0.00	29.813 
10:45	82.2	82.2	82.4	46	59.3	6	15	248	0.00	29.813 
10:50	82.2	82.2	82.5	47	59.9	3	9	270	0.00	29.813 
10:55	82.2	82.2	82.5	47	59.9	4	13	248	0.00	29.813 
11:00	81.8	81.8	82.1	47	59.6	5	11	270	0.00	29.814 
11:05	82.0	82.0	82.5	48	60.3	4	9	270	0.00	29.814 
11:10	83.2	83.2	83.4	46	60.2	5	14	270	0.00	29.814 
11:15	84.0	84.0	84.3	46	61.0	3	7	270	0.00	29.808 
11:20	84.0	84.0	84.1	45	60.3	5	13	270	0.00	29.808 
11:25	83.0	83.0	83.2	46	60.1	7	13	270	0.00	29.808 
11:30	82.4	82.4	82.7	47	60.1	4	8	248	0.00	29.813 
11:35	81.8	81.8	82.3	48	60.2	4	11	248	0.00	29.813 
11:40	81.2	81.2	81.8	49	60.2	3	10	270	0.00	29.813 
11:45	80.9	80.9	81.6	50	60.5	4	7	270	0.00	29.823 
11:50	80.9	80.9	81.6	50	60.5	4	10	248	0.00	29.823 
11:55	80.5	80.5	81.4	51	60.7	4	13	270	0.00	29.823 
12:00	80.1	80.1	81.1	52	60.9	4	10	270	0.00	29.833 
12:05	79.2	79.2	80.4	54	61.1	4	11	270	0.00	29.833 
12:10	78.5	78.5	79.9	56	61.5	4	9	270	0.00	29.833 
12:15	77.6	77.6	79.2	58	61.6	4	7	270	0.00	29.841 
12:20	76.8	76.8	78.6	60	61.8	4	10	270	0.00	29.841 
12:25	76.5	76.5	78.4	61	62.0	5	11	270	0.00	29.841 
12:30	76.3	76.3	78.2	62	62.3	2	6	225	0.00	29.847 
12:35	76.3	76.3	78.2	62	62.3	2	6	270	0.00	29.847 
12:40	76.3	76.3	78.2	62	62.3	4	6	270	0.00	29.847 
12:45	76.1	76.1	78.0	62	62.1	4	9	270	0.00	29.847 
12:50	76.3	76.3	78.2	63	62.8	1	4	248	0.00	29.847 
12:55	76.7	76.7	78.5	62	62.7	2	6	248	0.00	29.847 
13:00	77.0	77.0	78.8	61	62.5	3	6	248	0.00	29.848 
13:05	77.4	77.4	79.1	60	62.4	4	10	248	0.00	29.848 
13:10	77.9	77.9	79.6	60	62.9	3	7	248	0.00	29.848 
13:15	78.3	78.3	79.9	59	62.8	3	7	270	0.00	29.847 
13:20	78.5	78.5	80.1	59	63.0	4	11	270	0.00	29.847 
13:25	78.6	78.6	80.1	58	62.6	3	7	270	0.00	29.847 
13:30	79.6	79.6	81.1	57	63.0	4	9	270	0.00	29.842 
13:35	79.6	79.6	81.0	56	62.5	4	10	248	0.00	29.842 
13:40	79.6	79.6	81.1	57	63.0	5	10	270	0.00	29.842 
13:45	79.8	79.8	81.2	56	62.7	4	13	270	0.00	29.835 
13:50	79.6	79.6	81.0	56	62.5	4	9	270	0.00	29.835 
13:55	79.8	79.8	81.3	57	63.2	3	6	248	0.00	29.835 
14:00	79.9	79.9	81.2	55	62.3	4	11	270	0.00	29.837 
14:05	79.6	79.6	80.9	55	62.0	5	11	270	0.00	29.837 
14:10	79.6	79.6	80.9	55	62.0	5	10	248	0.00	29.837 
14:15	80.1	80.1	81.3	54	61.9	4	7	270	0.00	29.835 
14:20	80.3	80.3	81.6	55	62.6	4	10	270	0.00	29.835 
14:25	79.9	79.9	81.1	54	61.7	5	12	270	0.00	29.835 
14:30	79.8	79.8	81.0	54	61.7	5	10	270	0.00	29.832 
14:35	80.5	80.5	81.6	53	61.8	4	11	270	0.00	29.832 
14:40	81.1	81.1	81.8	50	60.7	6	15	270	0.00	29.832 
14:45	80.9	80.9	81.9	52	61.6	4	10	270	0.00	29.832 
14:50	81.1	81.1	82.1	52	61.8	4	10	270	0.00	29.832 
14:55	81.6	81.6	82.2	49	60.6	4	9	270	0.00	29.832 
15:00	81.2	81.2	81.7	48	59.6	6	11	270	0.00	29.831 
15:05	81.1	81.1	81.8	50	60.7	3	10	270	0.00	29.831 
15:10	81.6	81.6	82.2	49	60.6	4	11	248	0.00	29.831 
15:15	81.4	81.4	82.0	49	60.4	3	9	248	0.00	29.829 
15:20	80.9	80.9	81.6	50	60.5	3	7	270	0.00	29.829 
15:25	80.5	80.5	81.3	50	60.1	4	7	270	0.00	29.829 
15:30	80.1	80.1	81.1	52	60.9	4	8	270	0.00	29.831 
15:35	80.3	80.3	81.3	52	61.0	4	13	270	0.00	29.831 
15:40	80.5	80.5	81.5	52	61.2	5	11	270	0.00	29.831 
15:45	80.3	80.3	81.4	53	61.6	3	7	270	0.00	29.833 
15:50	79.9	79.9	81.0	53	61.2	4	12	248	0.00	29.833 
15:55	79.6	79.6	80.8	54	61.5	5	11	270	0.00	29.833 
16:00	79.9	79.9	80.9	52	60.7	4	6	270	0.00	29.830 
16:05	80.5	80.5	81.3	50	60.1	4	14	270	0.00	29.830 
16:10	80.3	80.3	81.1	50	59.9	4	9	270	0.00	29.830 
16:15	80.3	80.3	81.1	50	59.9	5	10	270	0.00	29.833 
16:20	80.5	80.5	81.0	48	59.0	4	11	270	0.00	29.833 
16:25	80.3	80.3	80.9	48	58.8	4	11	270	0.00	29.833 
16:30	79.9	79.9	80.5	48	58.4	4	10	270	0.00	29.837 
16:35	79.8	79.8	80.3	46	57.2	5	10	270	0.00	29.837 
16:40	79.9	79.9	80.3	45	56.6	4	11	270	0.00	29.837 
16:45	79.8	79.8	80.0	43	55.3	5	12	270	0.00	29.842 
16:50	79.2	79.2	79.7	44	55.4	5	11	270	0.00	29.842 
16:55	79.0	79.0	79.6	45	55.8	5	9	270	0.00	29.842 
17:00	79.0	79.0	79.6	45	55.8	4	8	248	0.00	29.840 
17:05	78.6	78.6	79.4	46	56.1	3	7	270	0.00	29.840 
17:10	78.6	78.6	79.4	46	56.1	3	8	270	0.00	29.840 
17:15	78.6	78.6	79.4	45	55.5	3	10	270	0.00	29.843 
17:20	78.5	78.5	79.2	44	54.7	5	11	270	0.00	29.843 
17:25	78.1	78.1	78.9	43	53.8	5	10	270	0.00	29.843 
17:30	78.1	78.1	79.0	44	54.4	3	7	270	0.00	29.851 
17:35	78.1	78.1	79.0	44	54.4	3	6	270	0.00	29.851 
17:40	78.1	78.1	78.9	42	53.1	4	8	270	0.00	29.851 
17:45	77.9	77.9	78.7	41	52.3	4	8	270	0.00	29.858 
17:50	77.6	77.6	78.6	41	52.0	4	10	270	0.00	29.858 
17:55	76.7	76.7	78.1	41	51.2	4	10	270	0.00	29.858 
18:00	76.0	76.0	77.9	43	51.9	5	10	270	0.00	29.864 
18:05	76.1	76.1	78.0	43	52.0	3	8	248	0.00	29.864 
18:10	76.3	76.3	78.0	43	52.1	3	7	270	0.00	29.864 
18:15	76.0	76.0	78.0	44	52.5	3	7	270	0.00	29.869 
18:20	75.3	75.3	77.7	45	52.5	2	9	270	0.00	29.869 
18:25	74.9	74.9	74.9	45	52.1	3	6	270	0.00	29.869 
18:30	74.9	74.9	74.9	44	51.5	5	7	270	0.00	29.871 
18:35	74.7	74.7	74.7	43	50.7	4	10	270	0.00	29.871 
18:40	74.6	74.6	74.6	44	51.2	4	9	270	0.00	29.871 
18:45	74.4	74.4	74.4	44	51.0	5	10	270	0.00	29.874 
18:50	74.0	74.0	74.0	45	51.3	4	8	270	0.00	29.874 
18:55	73.5	73.5	73.5	45	50.8	4	9	270	0.00	29.874 
19:00	73.0	73.0	73.0	46	51.0	3	7	248	0.00	29.884 
19:05	72.5	72.5	72.5	47	51.1	3	5	270	0.00	29.884 
19:10	72.1	72.1	72.1	47	50.7	4	6	270	0.00	29.884 
19:15	72.0	72.0	72.0	48	51.2	3	6	270	0.00	29.887 
19:20	71.6	71.6	71.6	49	51.4	3	6	270	0.00	29.887 
19:25	71.3	71.3	71.3	50	51.7	4	6	270	0.00	29.887 
19:30	71.1	71.1	71.1	50	51.5	3	6	270	0.00	29.894 
19:35	70.8	70.8	70.8	50	51.2	3	6	270	0.00	29.894 
19:40	70.6	70.6	70.6	51	51.6	2	6	270	0.00	29.894 
19:45	70.3	70.3	70.3	52	51.8	2	7	270	0.00	29.897 
19:50	70.1	70.1	70.1	52	51.6	2	5	270	0.00	29.897 
19:55	69.9	69.9	69.9	52	51.5	2	5	270	0.00	29.897 
20:00	69.6	69.6	69.6	53	51.7	1	4	270	0.00	29.902 
20:05	69.4	69.4	69.4	53	51.5	2	4	270	0.00	29.902 
20:10	69.3	69.3	69.3	54	51.9	1	3	270	0.00	29.902 
20:15	69.1	69.1	69.1	54	51.7	1	3	270	0.00	29.902 
20:20	68.8	68.8	68.8	54	51.5	2	4	292	0.00	29.902 
20:25	68.8	68.8	68.8	55	52.0	1	4	292	0.00	29.902 
20:30	68.6	68.6	68.6	55	51.8	1	3	292	0.00	29.903 
20:35	68.4	68.4	68.4	55	51.6	1	4	248	0.00	29.903 
20:40	68.4	68.4	68.4	56	52.1	1	3	248	0.00	29.903 
20:45	68.1	68.1	68.1	56	51.8	1	3	248	0.00	29.916 
20:50	67.9	67.9	67.9	57	52.1	1	3	338	0.00	29.916 
20:55	67.8	67.8	67.8	57	52.0	1	3	270	0.00	29.916 
21:00	67.6	67.6	67.6	58	52.3	1	4	270	0.00	29.921 
21:05	67.3	67.3	67.3	58	52.0	1	2	270	0.00	29.921 
21:10	67.1	67.1	67.1	58	51.8	2	5	270	0.00	29.921 
21:15	67.3	67.3	67.3	58	52.0	1	3	270	0.00	29.927 
21:20	67.1	67.1	67.1	58	51.8	1	3	315	0.00	29.927 
21:25	66.9	66.9	66.9	58	51.6	2	5	315	0.00	29.927 
21:30	66.9	66.9	66.9	59	52.1	2	4	270	0.00	29.936 
21:35	66.6	66.6	66.6	59	51.8	1	4	292	0.00	29.936 
21:40	66.4	66.4	66.4	59	51.6	2	4	270	0.00	29.936 
21:45	66.3	66.3	66.3	59	51.5	2	4	270	0.00	29.942 
21:50	66.1	66.1	66.1	59	51.3	2	5	292	0.00	29.942 
21:55	66.1	66.1	66.1	59	51.3	1	3	292	0.00	29.942 
22:00	65.8	65.8	65.8	60	51.5	1	4	292	0.00	29.947 
22:05	65.6	65.6	65.6	60	51.3	2	4	270	0.00	29.947 
22:10	65.5	65.5	65.5	61	51.7	1	3	270	0.00	29.947 
22:15	65.3	65.3	65.3	61	51.5	1	3	270	0.00	29.950 
22:20	65.0	65.0	65.0	61	51.2	1	4	270	0.00	29.950 
22:25	64.8	64.8	64.8	61	51.0	1	4	270	0.00	29.950 
22:30	64.7	64.7	64.7	62	51.4	1	3	270	0.00	29.950 
22:35	64.5	64.5	64.5	62	51.2	2	4	270	0.00	29.950 
22:40	64.5	64.5	64.5	61	50.7	2	5	270	0.00	29.950 
22:45	64.5	64.5	64.5	60	50.3	2	4	270	0.00	29.950 
22:50	64.5	64.5	64.5	60	50.3	3	5	270	0.00	29.950 
22:55	64.5	64.5	64.5	60	50.3	3	5	270	0.00	29.950 
23:00	64.5	64.5	64.5	60	50.3	2	4	270	0.00	29.951 
23:05	64.3	64.3	64.3	60	50.1	1	4	270	0.00	29.951 
23:10	64.2	64.2	64.2	61	50.5	2	6	270	0.00	29.951 
23:15	63.9	63.9	63.9	61	50.2	2	4	270	0.00	29.955 
23:20	63.7	63.7	63.7	61	50.0	1	4	270	0.00	29.955 
23:25	63.5	63.5	63.5	62	50.2	2	5	270	0.00	29.955 
23:30	63.4	63.4	63.4	62	50.1	2	5	270	0.00	29.957 
23:35	63.4	63.4	63.4	62	50.1	2	4	270	0.00	29.957 
23:40	63.2	63.2	63.2	62	50.0	1	4	270	0.00	29.957 
23:45	63.1	63.1	63.1	62	49.9	1	4	270	0.00	29.959 
23:50	62.9	62.9	62.9	62	49.7	1	5	270	0.00	29.959 
23:55	62.6	62.6	62.6	63	49.8	1	3	270	0.00	29.959 

CoCoRaHS
IN-AL-39
A2 Web Hosting
Creative Commons License
GoDaddy
search engine by freefind advanced

loaded 2018-11-20 06:19:43 • last modified 2010-11-18 10:43:29
Privacy PolicyDisclaimer
• wx.awcolley.com is powered by PmWiki v.2002016 •
• all content (unless otherwise noted) © 2018 A W Colley